< < Back
Terminal Aerodrome Forecast


Current Version              Previous Versions:   1  2  3  4  5  6  7  8  9  

Terminal Aerodrome Forecast

568
FTUS42 KGSP 201100
TAFGSP
TAF
KGSP 201134Z 2012/2112 00000KT P6SM BKN250
     FM201500 20006KT P6SM FEW050 FEW210
     FM210200 00000KT P6SM SCT210=

Latest METAR

617
SAUS70 KWBC 210000
MTRGSP
METAR KGSP 202353Z 18006KT 10SM CLR 14/11 A2999 RMK AO2 SLP152 T01440106
10206 20144 53001


USA.gov is the U.S. government's official web portal to all federal, state and local government web resources and services.